Time;durP1;ratioP1;P1;durP2;ratioP2;P2;SDS_P1;SDS_P2;PMS_P1;PMS_P2;Temp;Humidity;BMP_temperature;BMP_pressure;BME280_temperature;BME280_humidity;BME280_pressure;Samples;Min_cycle;Max_cycle;Signal;HPM_P1;HPM_P2
2021/12/17 05:08:00;;;;;;;11.02;5.93;;;;;;;8.22;65.47;101699.91;5607738;31;80920;-58
2021/12/17 05:21:06;;;;;;;12.13;6.53;;;;;;;7.78;72.99;101677.19;5593474;31;33463;-58
2021/12/17 05:24:09;;;;;;;8.90;5.85;;;;;;;7.52;62.80;101662.41;5586487;31;34182;-58
2021/12/17 05:27:11;;;;;;;12.10;6.22;;;;;;;7.87;71.52;101667.81;5583900;31;33177;-58
2021/12/17 05:30:14;;;;;;;8.15;5.75;;;;;;;7.92;70.93;101673.28;5583218;31;33913;-58
2021/12/17 05:33:19;;;;;;;10.05;5.78;;;;;;;7.85;79.58;101669.91;5588354;31;34141;-58
2021/12/17 05:36:22;;;;;;;8.70;5.75;;;;;;;8.38;78.05;101670.91;5590804;31;33690;-58
2021/12/17 05:39:24;;;;;;;9.77;6.40;;;;;;;7.94;76.33;101665.03;5564827;31;34452;-58
2021/12/17 05:42:28;;;;;;;8.65;4.95;;;;;;;7.92;62.39;101672.47;5564471;32;33808;-58
2021/12/17 05:45:47;;;;;;;8.18;5.55;;;;;;;7.68;63.12;101663.59;5564272;32;33416;-58
2021/12/17 05:48:49;;;;;;;10.40;6.00;;;;;;;7.73;67.00;101669.88;5563781;32;33376;-58
2021/12/17 05:51:54;;;;;;;10.80;5.12;;;;;;;7.62;61.74;101670.69;5563303;32;34354;-58
2021/12/17 05:54:56;;;;;;;7.82;4.00;;;;;;;7.91;61.67;101660.16;5568051;32;33302;-58
2021/12/17 05:57:59;;;;;;;6.35;4.05;;;;;;;7.54;58.75;101663.78;5580797;31;33786;-58
2021/12/17 06:01:02;;;;;;;6.93;3.67;;;;;;;7.83;66.80;101653.31;5572525;32;34106;-58
2021/12/17 06:04:06;;;;;;;7.62;4.05;;;;;;;8.09;58.33;101640.56;5571382;31;33469;-58
2021/12/17 06:07:10;;;;;;;7.40;3.92;;;;;;;7.92;59.00;101649.25;5581879;32;33323;-58
2021/12/17 06:10:13;;;;;;;8.55;4.00;;;;;;;7.91;58.59;101644.13;5553898;32;33315;-58
2021/12/17 06:13:15;;;;;;;6.72;3.60;;;;;;;8.19;65.31;101654.13;5563654;32;33101;-58
2021/12/17 06:16:18;;;;;;;7.55;4.37;;;;;;;8.15;58.28;101669.00;5562471;32;33198;-58
2021/12/17 06:19:20;;;;;;;8.07;3.90;;;;;;;7.90;59.32;101661.19;5557987;32;33607;-58
2021/12/17 06:22:23;;;;;;;8.60;4.07;;;;;;;7.82;60.05;101664.22;5554683;32;34069;-58
2021/12/17 06:25:27;;;;;;;7.72;4.40;;;;;;;7.45;60.18;101657.19;5554049;31;33431;-58
2021/12/17 06:28:30;;;;;;;8.02;4.28;;;;;;;7.43;62.45;101643.25;5556981;32;34360;-58
2021/12/17 06:31:33;;;;;;;8.82;4.53;;;;;;;7.32;63.00;101644.03;5553094;32;33526;-58
2021/12/17 06:34:36;;;;;;;7.60;4.65;;;;;;;7.08;62.76;101640.44;5551096;32;33298;-58
2021/12/17 06:37:40;;;;;;;10.77;4.60;;;;;;;6.96;61.77;101653.75;5568887;32;31981;-57
2021/12/17 06:40:45;;;;;;;8.80;4.18;;;;;;;6.81;62.51;101646.13;5556128;31;33415;-57
2021/12/17 06:43:47;;;;;;;8.38;3.87;;;;;;;6.88;64.76;101669.22;5551465;32;33840;-57
2021/12/17 07:10:28;;;;;;;9.85;4.53;;;;;;;6.68;64.57;101678.25;5551599;32;33315;-58
2021/12/17 07:23:36;;;;;;;12.88;6.37;;;;;;;6.90;63.46;101699.16;5566871;32;34013;-58
2021/12/17 07:33:36;;;;;;;10.98;5.12;;;;;;;6.85;63.70;101694.47;5549443;32;33198;-57
2021/12/17 07:39:54;;;;;;;7.62;5.12;;;;;;;6.83;64.20;101734.69;5561861;32;32094;-58
2021/12/17 07:42:57;;;;;;;9.18;4.95;;;;;;;6.79;64.27;101727.38;5555796;32;33335;-58
2021/12/17 07:46:00;;;;;;;9.43;4.72;;;;;;;6.73;64.99;101737.06;5553817;32;33419;-58
2021/12/17 07:49:03;;;;;;;6.97;4.62;;;;;;;6.80;64.37;101744.97;5550895;32;33840;-58
2021/12/17 07:52:07;;;;;;;9.00;4.78;;;;;;;6.80;64.46;101744.97;5563453;32;32661;-58
2021/12/17 07:55:09;;;;;;;8.88;4.57;;;;;;;6.85;64.19;101742.44;5557146;32;33477;-58
2021/12/17 07:58:12;;;;;;;9.15;5.00;;;;;;;6.83;64.10;101753.34;5557165;32;32541;-58
2021/12/17 08:01:15;;;;;;;12.45;4.55;;;;;;;6.72;63.99;101761.25;5559209;31;33249;-58
2021/12/17 08:04:18;;;;;;;8.13;4.40;;;;;;;6.79;65.28;101744.16;5550841;32;34221;-58
2021/12/17 08:07:20;;;;;;;8.02;4.95;;;;;;;6.86;64.61;101743.28;5556803;32;33332;-58
2021/12/17 08:10:23;;;;;;;9.25;4.20;;;;;;;6.69;63.93;101733.22;5548061;32;33333;-58
2021/12/17 08:13:30;;;;;;;11.52;4.62;;;;;;;6.98;65.93;101731.63;5551267;32;33734;-58
2021/12/17 08:16:41;;;;;;;8.70;3.90;;;;;;;7.13;62.83;101749.94;5566036;31;33786;-58
2021/12/17 08:23:34;;;;;;;10.10;3.90;;;;;;;7.23;63.10;101730.75;5558331;32;33493;-58
2021/12/17 08:32:35;;;;;;;6.35;3.92;;;;;;;7.38;61.56;101746.34;5568957;31;33348;-58
2021/12/17 08:35:39;;;;;;;6.85;4.20;;;;;;;7.29;61.54;101761.84;5549673;31;33608;-58
2021/12/17 08:38:49;;;;;;;7.47;3.78;;;;;;;7.25;61.67;101749.97;5558601;32;33297;-58
2021/12/17 08:41:58;;;;;;;6.18;3.97;;;;;;;7.29;62.06;101773.34;5549977;31;34127;-58
2021/12/17 08:45:04;;;;;;;7.55;3.42;;;;;;;7.32;63.17;101763.25;5548765;32;31960;-58
2021/12/17 08:48:10;;;;;;;8.02;3.60;;;;;;;7.46;61.19;101770.06;5555248;32;34295;-58
2021/12/17 08:51:13;;;;;;;7.05;3.97;;;;;;;7.38;60.97;101773.81;5553318;31;32146;-58
2021/12/17 08:54:17;;;;;;;6.93;3.87;;;;;;;7.39;61.18;101774.66;5557072;32;33121;-58
2021/12/17 08:57:20;;;;;;;7.82;3.92;;;;;;;7.45;60.74;101779.06;5558663;32;33398;-58
2021/12/17 09:00:22;;;;;;;10.25;4.50;;;;;;;7.50;61.21;101764.03;5557671;32;33371;-58
2021/12/17 09:03:25;;;;;;;7.53;4.60;;;;;;;7.41;60.85;101761.91;5553539;31;33239;-58
2021/12/17 09:06:28;;;;;;;7.50;4.22;;;;;;;7.48;61.44;101752.78;5547918;32;33345;-58
2021/12/17 09:09:31;;;;;;;10.15;4.90;;;;;;;7.54;63.23;101769.72;5552104;32;33626;-58
2021/12/17 09:12:36;;;;;;;8.18;4.40;;;;;;;7.38;61.56;101755.16;5558880;31;33998;-58
2021/12/17 09:15:39;;;;;;;7.70;4.35;;;;;;;7.34;61.41;101756.66;5547068;32;34128;-58
2021/12/17 09:18:42;;;;;;;8.07;4.75;;;;;;;7.42;62.45;101769.69;5557100;32;34297;-58
2021/12/17 09:21:45;;;;;;;11.68;5.15;;;;;;;7.57;61.36;101765.81;5547606;32;33319;-58
2021/12/17 09:24:48;;;;;;;8.82;5.07;;;;;;;7.32;62.06;101765.91;5548249;32;34347;-58
2021/12/17 09:27:56;;;;;;;7.62;4.40;;;;;;;7.39;63.41;101769.34;5560386;32;35480;-58
2021/12/17 09:30:59;;;;;;;9.80;5.32;;;;;;;7.54;63.02;101767.88;5559205;31;33743;-58
2021/12/17 09:34:03;;;;;;;10.60;4.30;;;;;;;7.62;60.83;101784.62;5546474;32;33967;-59
2021/12/17 09:37:06;;;;;;;9.60;4.22;;;;;;;7.50;60.73;101756.03;5549986;32;33566;-58
2021/12/17 09:40:11;;;;;;;7.30;3.95;;;;;;;7.33;60.98;101760.38;5555607;32;33630;-58
2021/12/17 09:43:14;;;;;;;9.05;3.70;;;;;;;7.37;62.97;101766.06;5551775;32;33798;-58
2021/12/17 09:46:17;;;;;;;8.55;4.10;;;;;;;7.35;61.24;101757.47;5546019;32;33912;-58
2021/12/17 09:49:19;;;;;;;6.95;4.22;;;;;;;7.49;61.17;101767.75;5546381;32;34228;-58
2021/12/17 09:52:22;;;;;;;6.70;4.05;;;;;;;7.65;69.56;101755.63;5556637;32;34290;-58
2021/12/17 09:55:26;;;;;;;6.32;3.62;;;;;;;7.60;60.39;101758.16;5553649;32;33886;-58
2021/12/17 09:58:29;;;;;;;8.07;3.60;;;;;;;7.60;60.18;101744.00;5566904;32;32890;-58
2021/12/17 10:01:37;;;;;;;9.73;3.65;;;;;;;7.68;60.22;101762.34;5548709;32;33511;-58
2021/12/17 10:04:45;;;;;;;10.40;4.45;;;;;;;7.70;59.85;101762.94;5551425;32;34364;-58
2021/12/17 10:07:54;;;;;;;6.37;3.47;;;;;;;7.76;60.44;101759.37;5553390;32;33629;-58
2021/12/17 10:10:59;;;;;;;10.10;4.20;;;;;;;7.88;63.22;101751.38;5550564;32;33578;-58
2021/12/17 10:14:18;;;;;;;7.75;3.75;;;;;;;7.80;59.21;101781.09;5551735;32;33770;-58
2021/12/17 10:17:20;;;;;;;9.38;4.05;;;;;;;7.73;60.01;101779.31;5536138;32;33242;-58
2021/12/17 10:20:24;;;;;;;8.23;3.62;;;;;;;7.71;59.82;101769.91;5551968;32;33601;-58
2021/12/17 10:23:29;;;;;;;6.93;3.60;;;;;;;7.83;61.07;101761.94;5559620;32;33404;-58
2021/12/17 10:26:41;;;;;;;9.52;3.75;;;;;;;7.94;58.95;101756.63;5558123;32;34575;-58
2021/12/17 10:29:44;;;;;;;11.85;4.62;;;;;;;7.73;59.67;101754.50;5553886;32;33845;-58
2021/12/17 10:32:51;;;;;;;8.85;4.12;;;;;;;7.83;59.85;101760.09;5550687;32;33671;-58
2021/12/17 10:35:57;;;;;;;8.38;4.18;;;;;;;7.95;59.86;101757.47;5550487;32;34377;-58
2021/12/17 10:39:03;;;;;;;9.10;4.20;;;;;;;7.92;61.02;101749.91;5551434;32;33847;-58
2021/12/17 10:42:06;;;;;;;11.20;4.45;;;;;;;8.13;60.61;101753.88;5558617;32;33736;-58
2021/12/17 10:45:12;;;;;;;10.50;4.40;;;;;;;8.17;60.20;101741.69;5554521;32;33399;-58
2021/12/17 10:54:33;;;;;;;8.00;4.10;;;;;;;8.21;59.50;101734.84;5551577;32;34046;-58
2021/12/17 10:57:35;;;;;;;10.00;3.75;;;;;;;8.16;59.68;101734.75;5556081;32;33684;-59
2021/12/17 11:01:07;;;;;;;8.02;4.03;;;;;;;8.17;58.80;101744.38;5551600;32;34651;-58
2021/12/17 11:04:13;;;;;;;6.72;3.87;;;;;;;8.17;58.38;101747.03;5544139;31;33927;-58
2021/12/17 11:07:17;;;;;;;;;;;;;;;8.28;60.26;101718.69;5551163;32;33663;-59
2021/12/17 11:10:31;;;;;;;7.97;3.87;;;;;;;8.26;58.52;101726.16;5551161;32;34117;-59
2021/12/17 11:13:34;;;;;;;9.35;4.18;;;;;;;8.30;58.86;101720.09;5562203;32;34338;-58
2021/12/17 11:16:38;;;;;;;8.30;4.00;;;;;;;8.46;59.21;101708.75;5550922;32;34046;-58
2021/12/17 11:19:42;;;;;;;7.47;4.10;;;;;;;8.45;58.18;101719.69;5550662;32;33511;-58
2021/12/17 11:22:46;;;;;;;7.55;4.12;;;;;;;8.46;59.99;101710.63;5551243;32;33798;-58
2021/12/17 11:25:53;;;;;;;8.10;4.10;;;;;;;8.42;57.49;101720.97;5550616;32;34335;-58
2021/12/17 11:29:00;;;;;;;9.30;4.50;;;;;;;8.52;58.29;101709.69;5555220;32;33799;-58
2021/12/17 11:32:05;;;;;;;10.90;4.35;;;;;;;8.84;57.92;101717.28;5559048;32;33683;-58
2021/12/17 11:35:07;;;;;;;8.90;3.70;;;;;;;8.82;56.95;101712.19;5569539;32;34796;-58
2021/12/17 11:38:13;;;;;;;6.85;4.00;;;;;;;8.82;57.25;101709.53;5568755;31;33614;-58
2021/12/17 11:41:36;;;;;;;6.68;4.15;;;;;;;8.62;58.06;101699.22;5553221;32;33721;-58
2021/12/17 11:44:42;;;;;;;8.68;3.97;;;;;;;8.53;57.02;101700.59;5551832;32;34109;-58
2021/12/17 11:47:45;;;;;;;9.40;4.37;;;;;;;8.49;59.91;101710.16;5555536;32;34426;-58
2021/12/17 11:51:13;;;;;;;7.45;3.70;;;;;;;8.26;57.69;101683.41;5549917;32;34344;-58
2021/12/17 11:54:18;;;;;;;13.75;3.65;;;;;;;8.21;57.57;101682.25;5548618;32;33212;-59
2021/12/17 11:57:21;;;;;;;10.23;4.47;;;;;;;8.31;57.71;101696.88;5549471;32;34552;-58
2021/12/17 12:00:41;;;;;;;7.55;4.07;;;;;;;8.42;57.31;101680.06;5549128;32;33681;-58
2021/12/17 12:03:44;;;;;;;12.37;4.10;;;;;;;8.65;58.82;101690.72;5551936;32;31983;-58
2021/12/17 12:07:02;;;;;;;11.32;3.80;;;;;;;8.41;57.23;101691.78;5538442;32;33617;-58
2021/12/17 12:10:13;;;;;;;10.52;3.95;;;;;;;8.57;61.22;101701.75;5550143;32;33397;-59
2021/12/17 12:13:33;;;;;;;7.37;3.83;;;;;;;8.42;58.29;101688.09;5550160;32;33960;-58
2021/12/17 12:16:40;;;;;;;7.60;3.58;;;;;;;8.28;59.31;101678.63;5548534;32;33429;-58
2021/12/17 12:19:49;;;;;;;11.60;4.12;;;;;;;8.32;56.81;101683.28;5548874;32;34493;-58
2021/12/17 12:23:21;;;;;;;8.35;3.78;;;;;;;8.30;57.31;101685.38;5556884;32;34345;-58
2021/12/17 12:26:33;;;;;;;7.68;4.00;;;;;;;8.30;57.74;101687.22;5549262;32;33330;-58
2021/12/17 12:29:36;;;;;;;7.20;3.20;;;;;;;8.31;60.17;101689.69;5548701;32;34432;-58
2021/12/17 12:33:07;;;;;;;6.07;3.45;;;;;;;8.22;57.98;101688.41;5551181;32;33625;-58
2021/12/17 12:36:10;;;;;;;13.80;3.65;;;;;;;8.16;58.31;101703.50;5548744;32;33557;-58
2021/12/17 12:39:18;;;;;;;19.42;4.00;;;;;;;8.10;57.85;101693.72;5549608;32;33494;-58
2021/12/17 12:42:31;;;;;;;8.30;3.80;;;;;;;8.03;57.54;101713.59;5546272;32;34355;-58
2021/12/17 12:45:39;;;;;;;12.48;4.15;;;;;;;8.03;58.49;101703.72;5545288;32;34080;-58
2021/12/17 12:48:42;;;;;;;6.15;3.20;;;;;;;7.89;58.52;101710.31;5548409;32;33796;-58
2021/12/17 12:51:48;;;;;;;6.12;3.40;;;;;;;7.92;59.30;101708.00;5552731;32;33637;-58
2021/12/17 12:54:52;;;;;;;8.57;3.70;;;;;;;7.97;58.56;101715.31;5551429;32;33326;-59
2021/12/17 12:58:06;;;;;;;8.93;3.50;;;;;;;7.91;59.17;101733.09;5550115;32;34190;-58
2021/12/17 13:01:10;;;;;;;7.07;3.10;;;;;;;7.94;59.50;101723.78;5549469;32;33113;-58
2021/12/17 13:04:12;;;;;;;9.23;3.37;;;;;;;7.97;57.85;101710.78;5544424;32;33266;-58
2021/12/17 13:07:15;;;;;;;6.70;3.33;;;;;;;8.02;58.41;101715.44;5545020;32;33219;-58
2021/12/17 13:10:23;;;;;;;9.65;4.32;;;;;;;7.93;60.94;101706.94;5544912;32;33827;-58
2021/12/17 13:13:36;;;;;;;10.38;3.85;;;;;;;8.07;57.63;101722.75;5547005;32;33708;-58
2021/12/17 13:16:54;;;;;;;7.35;3.55;;;;;;;8.09;58.21;101710.00;5548602;32;34232;-58
2021/12/17 13:23:20;;;;;;;7.05;3.72;;;;;;;8.20;59.06;101699.31;5549075;32;33682;-58
2021/12/17 13:26:24;;;;;;;11.93;3.78;;;;;;;8.38;58.89;101687.75;5547524;32;33607;-58
2021/12/17 13:29:35;;;;;;;5.93;3.62;;;;;;;8.34;57.74;101697.22;5549206;32;33790;-58
2021/12/17 13:32:42;;;;;;;11.55;3.78;;;;;;;8.18;58.03;101680.03;5547288;32;34335;-58
2021/12/17 13:35:46;;;;;;;6.75;3.17;;;;;;;8.23;58.59;101676.66;5550493;32;33824;-58
2021/12/17 13:38:56;;;;;;;10.60;4.28;;;;;;;8.29;59.27;101674.94;5551036;32;33782;-56
2021/12/17 13:41:59;;;;;;;8.48;3.58;;;;;;;8.23;57.71;101674.81;5551099;32;34524;-58
2021/12/17 13:45:10;;;;;;;9.15;3.83;;;;;;;8.32;57.22;101688.63;5551373;32;33610;-58
2021/12/17 13:48:13;;;;;;;6.35;3.97;;;;;;;8.11;57.75;101681.19;5551000;32;34369;-58
2021/12/17 13:51:16;;;;;;;8.77;3.70;;;;;;;8.12;58.44;101691.66;5551533;32;33603;-59
2021/12/17 13:54:18;;;;;;;7.53;3.58;;;;;;;8.19;58.18;101696.88;5551119;32;34302;-58
2021/12/17 13:57:24;;;;;;;8.13;3.75;;;;;;;8.26;57.56;101694.91;5551470;32;33700;-58
2021/12/17 14:00:32;;;;;;;9.52;3.83;;;;;;;8.01;58.51;101708.47;5550282;32;34179;-58
2021/12/17 14:03:38;;;;;;;9.40;3.62;;;;;;;8.05;58.66;101706.97;5550496;32;33358;-58
2021/12/17 14:06:51;;;;;;;13.25;3.75;;;;;;;7.91;59.14;101710.88;5550792;32;34346;-58
2021/12/17 14:10:03;;;;;;;10.27;3.85;;;;;;;8.07;58.67;101720.09;5549814;32;34539;-58
2021/12/17 14:13:15;;;;;;;8.02;3.30;;;;;;;7.96;58.83;101727.03;5551257;32;34445;-58
2021/12/17 14:16:41;;;;;;;7.85;3.65;;;;;;;7.98;58.84;101709.75;5550415;32;33428;-58
2021/12/17 14:19:46;;;;;;;6.00;3.50;;;;;;;8.23;62.93;101708.72;5550263;32;34435;-58
2021/12/17 14:22:52;;;;;;;9.15;3.30;;;;;;;8.35;58.19;101712.22;5550230;32;33735;-58
2021/12/17 14:25:59;;;;;;;12.70;3.93;;;;;;;8.57;62.95;101707.09;5549861;32;33700;-58
2021/12/17 14:29:10;;;;;;;6.68;3.50;;;;;;;8.75;62.09;101708.03;5549800;32;33940;-59
2021/12/17 14:32:19;;;;;;;10.70;4.37;;;;;;;8.57;57.01;101703.63;5549497;32;33861;-59
2021/12/17 14:35:46;;;;;;;7.10;3.62;;;;;;;8.71;57.94;101707.69;5550052;32;33734;-59
2021/12/17 14:38:58;;;;;;;9.18;3.65;;;;;;;8.62;56.65;101709.09;5547841;32;33157;-59
2021/12/17 14:42:04;;;;;;;5.90;3.22;;;;;;;8.09;57.36;101702.78;5549747;32;33815;-59
2021/12/17 14:45:08;;;;;;;8.98;3.55;;;;;;;8.27;57.87;101709.88;5550371;32;33348;-58
2021/12/17 14:48:17;;;;;;;7.07;3.25;;;;;;;8.14;57.24;101699.41;5550877;32;33616;-58
2021/12/17 14:59:27;;;;;;;6.78;3.60;;;;;;;7.96;59.09;101719.84;5550310;32;33814;-58
2021/12/17 15:01:50;;;;;;;8.68;3.62;;;;;;;7.82;58.37;101705.09;5549970;32;33339;-58
2021/12/17 15:04:52;;;;;;;7.90;3.33;;;;;;;8.03;58.62;101702.91;5550350;32;34338;-59
2021/12/17 15:07:57;;;;;;;10.13;3.90;;;;;;;7.96;58.50;101711.81;5550766;32;33767;-59
2021/12/17 15:11:04;;;;;;;7.07;3.70;;;;;;;7.82;58.62;101691.72;5551520;32;34386;-59
2021/12/17 15:14:06;;;;;;;7.65;3.35;;;;;;;7.69;58.83;101694.59;5550938;32;33703;-58
2021/12/17 15:17:09;;;;;;;7.30;3.60;;;;;;;7.58;59.62;101680.16;5551171;32;34273;-59
2021/12/17 15:20:14;;;;;;;6.62;3.15;;;;;;;7.75;59.45;101691.84;5551138;32;34480;-58
2021/12/17 15:23:17;;;;;;;9.43;4.20;;;;;;;7.61;58.67;101695.72;5550891;32;33767;-58
2021/12/17 15:26:19;;;;;;;10.70;3.75;;;;;;;7.55;58.82;101688.66;5550951;32;33912;-59
2021/12/17 15:29:25;;;;;;;7.82;3.90;;;;;;;7.45;59.10;101683.88;5551233;32;33827;-59
2021/12/17 15:32:28;;;;;;;10.48;3.95;;;;;;;7.60;59.66;101679.94;5551290;32;34311;-59
2021/12/17 15:35:32;;;;;;;9.02;4.05;;;;;;;7.71;59.17;101684.50;5550624;32;33769;-58
2021/12/17 15:38:34;;;;;;;10.10;3.90;;;;;;;7.61;58.52;101703.72;5550562;32;33673;-59
2021/12/17 15:41:40;;;;;;;9.57;3.72;;;;;;;7.49;59.43;101701.03;5550543;32;34374;-59
2021/12/17 15:44:43;;;;;;;8.05;3.55;;;;;;;7.52;59.69;101686.44;5550671;32;33225;-58
2021/12/17 15:47:45;;;;;;;7.37;3.37;;;;;;;7.41;58.70;101693.34;5550110;32;33673;-59
2021/12/17 15:50:48;;;;;;;10.52;3.25;;;;;;;7.34;59.27;101705.16;5549416;32;33529;-59
2021/12/17 15:53:51;;;;;;;8.48;3.97;;;;;;;7.31;59.42;101703.75;5550593;32;33795;-59
2021/12/17 15:56:54;;;;;;;7.72;3.50;;;;;;;7.22;58.94;101689.12;5550138;32;33613;-58
2021/12/17 15:59:56;;;;;;;13.40;3.50;;;;;;;7.23;59.33;101707.53;5550063;32;33803;-58
2021/12/17 16:03:00;;;;;;;11.68;4.40;;;;;;;7.06;59.85;101687.87;5550062;32;33805;-59
2021/12/17 16:06:05;;;;;;;12.15;4.53;;;;;;;7.03;60.26;101675.00;5549824;32;34426;-59
2021/12/17 16:09:21;;;;;;;9.85;4.00;;;;;;;7.09;60.28;101679.44;5550106;32;33740;-58
2021/12/17 16:20:59;;;;;;;10.60;3.75;;;;;;;7.00;60.66;101684.25;5550944;32;33707;-58
2021/12/17 16:22:15;;;;;;;9.57;4.37;;;;;;;7.17;59.57;101683.63;5550142;32;33479;-58
2021/12/17 16:25:17;;;;;;;7.10;3.67;;;;;;;7.00;59.91;101686.91;5550201;32;34462;-59
2021/12/17 16:28:19;;;;;;;6.85;3.75;;;;;;;6.91;59.82;101687.44;5549996;32;33761;-59
2021/12/17 16:31:25;;;;;;;10.55;3.75;;;;;;;6.93;59.93;101680.84;5549509;32;34345;-59
2021/12/17 16:34:27;;;;;;;10.38;4.20;;;;;;;7.00;59.40;101684.25;5549293;32;34236;-58
2021/12/17 16:37:29;;;;;;;10.65;3.95;;;;;;;6.93;59.58;101696.84;5549538;32;33695;-59
2021/12/17 16:40:32;;;;;;;8.52;4.40;;;;;;;7.15;59.85;101688.38;5549607;32;34346;-59
2021/12/17 16:43:35;;;;;;;13.62;4.30;;;;;;;7.16;59.93;101688.16;5549649;32;34388;-58
2021/12/17 16:49:45;;;;;;;11.57;4.20;;;;;;;7.01;59.88;101693.88;5549395;32;33629;-58
2021/12/17 16:52:47;;;;;;;8.85;3.55;;;;;;;7.03;60.29;101696.31;5549553;32;33753;-58
2021/12/17 16:55:50;;;;;;;8.05;3.83;;;;;;;7.04;59.90;101693.41;5549438;32;33992;-59
2021/12/17 16:58:52;;;;;;;7.00;4.32;;;;;;;7.19;59.49;101686.91;5549439;32;33388;-58
2021/12/17 17:01:55;;;;;;;7.72;3.20;;;;;;;7.01;60.45;101682.38;5548618;32;33753;-58
